Bloomington, Indiana
Current Conditions -  °F | °C
As of 3:53 PM on Sunday 23 Nov 2014 (Local Time) from KBMG Reporting Station
Light Rain Light Rain  
Wind Chill: 53°   Ceiling: 800
Heat Index: 53°   Visibility: 3mi
Dew Point: 52°   Wind: 16mph
Humidity: 96%   Direction: 130°SE
Pressure: 29.5"   Gusts: 26mph
Location:  39.17°N, 86.53°W
Report Text: KBMG 232053Z 13014G23KT 3SM -RA BR BKN008 OVC012 12/11 A2950 RMK AO2 CIG 006V011 SLP990 P0007 60021 T01170111 56060
Loading
Personal Weather Stations






























Interactive Weather Map New forecast layout! Learn more

10-Day Weather Forecast

Advertisements
Track Severe Weather on mobile